sensor_id;sensor_type;location;lat;lon;timestamp;P1;durP1;ratioP1;P2;durP2;ratioP2
297;SDS011;133;49.626;9.680;2023-04-24T00:00:25;1.73;;;1.70;;
297;SDS011;133;49.626;9.680;2023-04-24T00:02:50;2.20;;;2.00;;
297;SDS011;133;49.626;9.680;2023-04-24T00:05:16;2.77;;;2.00;;
297;SDS011;133;49.626;9.680;2023-04-24T00:07:45;2.63;;;2.10;;
297;SDS011;133;49.626;9.680;2023-04-24T00:10:11;2.83;;;2.07;;
297;SDS011;133;49.626;9.680;2023-04-24T00:12:37;2.90;;;1.80;;
297;SDS011;133;49.626;9.680;2023-04-24T00:15:03;1.80;;;1.70;;
297;SDS011;133;49.626;9.680;2023-04-24T00:17:30;2.90;;;2.00;;
297;SDS011;133;49.626;9.680;2023-04-24T00:19:55;2.17;;;2.00;;
297;SDS011;133;49.626;9.680;2023-04-24T00:22:26;3.27;;;1.90;;
297;SDS011;133;49.626;9.680;2023-04-24T00:24:53;2.50;;;2.10;;
297;SDS011;133;49.626;9.680;2023-04-24T00:27:19;4.27;;;2.17;;
297;SDS011;133;49.626;9.680;2023-04-24T00:29:45;2.63;;;2.10;;
297;SDS011;133;49.626;9.680;2023-04-24T00:32:10;2.20;;;2.00;;
297;SDS011;133;49.626;9.680;2023-04-24T00:34:36;2.27;;;2.07;;
297;SDS011;133;49.626;9.680;2023-04-24T00:37:02;2.73;;;1.73;;
297;SDS011;133;49.626;9.680;2023-04-24T00:39:27;4.50;;;1.97;;
297;SDS011;133;49.626;9.680;2023-04-24T00:41:53;2.20;;;2.00;;
297;SDS011;133;49.626;9.680;2023-04-24T00:44:20;2.00;;;1.90;;
297;SDS011;133;49.626;9.680;2023-04-24T00:46:46;2.20;;;2.00;;
297;SDS011;133;49.626;9.680;2023-04-24T00:49:19;2.90;;;2.60;;
297;SDS011;133;49.626;9.680;2023-04-24T00:51:47;2.60;;;1.90;;
297;SDS011;133;49.626;9.680;2023-04-24T00:54:14;2.03;;;1.93;;
297;SDS011;133;49.626;9.680;2023-04-24T00:56:40;3.40;;;1.77;;
297;SDS011;133;49.626;9.680;2023-04-24T00:59:07;3.63;;;1.77;;
297;SDS011;133;49.626;9.680;2023-04-24T01:01:33;5.70;;;2.33;;
297;SDS011;133;49.626;9.680;2023-04-24T01:03:59;2.00;;;1.90;;
297;SDS011;133;49.626;9.680;2023-04-24T01:06:27;2.33;;;2.17;;
297;SDS011;133;49.626;9.680;2023-04-24T01:08:53;4.30;;;2.20;;
297;SDS011;133;49.626;9.680;2023-04-24T01:11:20;2.70;;;2.40;;
297;SDS011;133;49.626;9.680;2023-04-24T01:13:47;4.40;;;2.00;;
297;SDS011;133;49.626;9.680;2023-04-24T01:16:13;3.20;;;2.13;;
297;SDS011;133;49.626;9.680;2023-04-24T01:18:42;3.50;;;2.07;;
297;SDS011;133;49.626;9.680;2023-04-24T01:21:09;3.23;;;1.93;;
297;SDS011;133;49.626;9.680;2023-04-24T01:23:37;2.00;;;1.90;;
297;SDS011;133;49.626;9.680;2023-04-24T01:26:03;4.30;;;2.07;;
297;SDS011;133;49.626;9.680;2023-04-24T01:28:29;2.30;;;2.10;;
297;SDS011;133;49.626;9.680;2023-04-24T01:30:55;3.40;;;2.07;;
297;SDS011;133;49.626;9.680;2023-04-24T01:33:21;6.97;;;1.90;;
297;SDS011;133;49.626;9.680;2023-04-24T01:35:47;2.40;;;2.20;;
297;SDS011;133;49.626;9.680;2023-04-24T01:38:13;2.33;;;2.13;;
297;SDS011;133;49.626;9.680;2023-04-24T01:40:40;2.50;;;1.87;;
297;SDS011;133;49.626;9.680;2023-04-24T01:43:05;3.17;;;2.10;;
297;SDS011;133;49.626;9.680;2023-04-24T01:45:31;3.93;;;1.90;;
297;SDS011;133;49.626;9.680;2023-04-24T01:47:57;2.07;;;1.90;;
297;SDS011;133;49.626;9.680;2023-04-24T01:50:23;1.93;;;1.90;;
297;SDS011;133;49.626;9.680;2023-04-24T01:52:49;2.30;;;2.10;;
297;SDS011;133;49.626;9.680;2023-04-24T01:55:14;2.77;;;2.00;;
297;SDS011;133;49.626;9.680;2023-04-24T01:57:40;2.20;;;2.00;;
297;SDS011;133;49.626;9.680;2023-04-24T02:00:06;2.33;;;2.13;;
297;SDS011;133;49.626;9.680;2023-04-24T02:02:32;2.90;;;2.10;;
297;SDS011;133;49.626;9.680;2023-04-24T02:04:58;1.90;;;1.80;;
297;SDS011;133;49.626;9.680;2023-04-24T02:07:24;2.20;;;2.00;;
297;SDS011;133;49.626;9.680;2023-04-24T02:09:49;2.07;;;1.70;;
297;SDS011;133;49.626;9.680;2023-04-24T02:12:15;2.50;;;2.30;;
297;SDS011;133;49.626;9.680;2023-04-24T02:14:42;5.93;;;2.10;;
297;SDS011;133;49.626;9.680;2023-04-24T02:17:09;4.30;;;2.20;;
297;SDS011;133;49.626;9.680;2023-04-24T02:19:34;1.90;;;1.80;;
297;SDS011;133;49.626;9.680;2023-04-24T02:22:00;2.30;;;2.10;;
297;SDS011;133;49.626;9.680;2023-04-24T02:24:26;1.97;;;1.87;;
297;SDS011;133;49.626;9.680;2023-04-24T02:26:51;2.87;;;1.93;;
297;SDS011;133;49.626;9.680;2023-04-24T02:29:17;2.93;;;1.90;;
297;SDS011;133;49.626;9.680;2023-04-24T02:31:42;2.20;;;2.10;;
297;SDS011;133;49.626;9.680;2023-04-24T02:34:08;2.37;;;1.93;;
297;SDS011;133;49.626;9.680;2023-04-24T02:36:34;2.53;;;1.80;;
297;SDS011;133;49.626;9.680;2023-04-24T02:39:00;5.23;;;1.87;;
297;SDS011;133;49.626;9.680;2023-04-24T02:41:26;5.83;;;1.93;;
297;SDS011;133;49.626;9.680;2023-04-24T02:43:56;1.90;;;1.80;;
297;SDS011;133;49.626;9.680;2023-04-24T02:46:22;1.70;;;1.60;;
297;SDS011;133;49.626;9.680;2023-04-24T02:48:48;2.53;;;1.80;;
297;SDS011;133;49.626;9.680;2023-04-24T02:51:13;1.87;;;1.80;;
297;SDS011;133;49.626;9.680;2023-04-24T02:53:39;2.17;;;2.00;;
297;SDS011;133;49.626;9.680;2023-04-24T02:56:05;2.60;;;2.20;;
297;SDS011;133;49.626;9.680;2023-04-24T02:58:30;2.20;;;2.00;;
297;SDS011;133;49.626;9.680;2023-04-24T03:00:56;3.40;;;1.93;;
297;SDS011;133;49.626;9.680;2023-04-24T03:03:22;3.00;;;1.80;;
297;SDS011;133;49.626;9.680;2023-04-24T03:05:48;1.90;;;1.83;;
297;SDS011;133;49.626;9.680;2023-04-24T03:08:14;2.77;;;1.97;;
297;SDS011;133;49.626;9.680;2023-04-24T03:10:39;2.27;;;1.80;;
297;SDS011;133;49.626;9.680;2023-04-24T03:13:05;3.47;;;2.03;;
297;SDS011;133;49.626;9.680;2023-04-24T03:15:31;1.70;;;1.60;;
297;SDS011;133;49.626;9.680;2023-04-24T03:17:56;1.93;;;1.70;;
297;SDS011;133;49.626;9.680;2023-04-24T03:20:22;12.73;;;2.93;;
297;SDS011;133;49.626;9.680;2023-04-24T03:22:48;1.90;;;1.80;;
297;SDS011;133;49.626;9.680;2023-04-24T03:25:14;3.10;;;1.83;;
297;SDS011;133;49.626;9.680;2023-04-24T03:27:39;3.00;;;1.87;;
297;SDS011;133;49.626;9.680;2023-04-24T03:30:06;2.20;;;2.00;;
297;SDS011;133;49.626;9.680;2023-04-24T03:32:32;1.93;;;1.83;;
297;SDS011;133;49.626;9.680;2023-04-24T03:34:58;2.80;;;2.00;;
297;SDS011;133;49.626;9.680;2023-04-24T03:37:23;4.47;;;1.97;;
297;SDS011;133;49.626;9.680;2023-04-24T03:39:49;2.20;;;2.00;;
297;SDS011;133;49.626;9.680;2023-04-24T03:42:15;2.27;;;2.07;;
297;SDS011;133;49.626;9.680;2023-04-24T03:44:40;3.57;;;1.93;;
297;SDS011;133;49.626;9.680;2023-04-24T03:47:06;1.90;;;1.80;;
297;SDS011;133;49.626;9.680;2023-04-24T03:49:32;1.90;;;1.80;;
297;SDS011;133;49.626;9.680;2023-04-24T03:51:57;3.10;;;2.13;;
297;SDS011;133;49.626;9.680;2023-04-24T03:54:23;3.43;;;1.90;;
297;SDS011;133;49.626;9.680;2023-04-24T03:56:48;2.23;;;2.07;;
297;SDS011;133;49.626;9.680;2023-04-24T03:59:14;2.27;;;2.07;;
297;SDS011;133;49.626;9.680;2023-04-24T04:01:40;2.77;;;2.00;;
297;SDS011;133;49.626;9.680;2023-04-24T04:04:06;1.87;;;1.77;;
297;SDS011;133;49.626;9.680;2023-04-24T04:06:32;1.73;;;1.63;;
297;SDS011;133;49.626;9.680;2023-04-24T04:08:58;2.33;;;2.13;;
297;SDS011;133;49.626;9.680;2023-04-24T04:11:24;3.80;;;2.40;;
297;SDS011;133;49.626;9.680;2023-04-24T04:13:50;2.10;;;1.97;;
297;SDS011;133;49.626;9.680;2023-04-24T04:16:16;1.87;;;1.77;;
297;SDS011;133;49.626;9.680;2023-04-24T04:18:42;1.93;;;1.70;;
297;SDS011;133;49.626;9.680;2023-04-24T04:21:08;3.33;;;1.77;;
297;SDS011;133;49.626;9.680;2023-04-24T04:23:34;2.50;;;1.97;;
297;SDS011;133;49.626;9.680;2023-04-24T04:26:00;2.90;;;2.27;;
297;SDS011;133;49.626;9.680;2023-04-24T04:28:26;2.13;;;1.93;;
297;SDS011;133;49.626;9.680;2023-04-24T04:30:52;2.87;;;2.13;;
297;SDS011;133;49.626;9.680;2023-04-24T04:33:22;4.43;;;2.20;;
297;SDS011;133;49.626;9.680;2023-04-24T04:35:48;2.20;;;1.90;;
297;SDS011;133;49.626;9.680;2023-04-24T04:38:15;2.80;;;2.00;;
297;SDS011;133;49.626;9.680;2023-04-24T04:40:42;2.20;;;2.00;;
297;SDS011;133;49.626;9.680;2023-04-24T04:43:08;2.50;;;2.30;;
297;SDS011;133;49.626;9.680;2023-04-24T04:45:35;2.50;;;2.30;;
297;SDS011;133;49.626;9.680;2023-04-24T04:48:01;5.83;;;2.73;;
297;SDS011;133;49.626;9.680;2023-04-24T04:50:28;4.57;;;2.53;;
297;SDS011;133;49.626;9.680;2023-04-24T04:52:54;2.63;;;2.43;;
297;SDS011;133;49.626;9.680;2023-04-24T04:55:19;3.80;;;2.67;;
297;SDS011;133;49.626;9.680;2023-04-24T04:57:58;5.43;;;2.60;;
297;SDS011;133;49.626;9.680;2023-04-24T05:00:25;2.50;;;2.30;;
297;SDS011;133;49.626;9.680;2023-04-24T05:02:51;3.23;;;2.40;;
297;SDS011;133;49.626;9.680;2023-04-24T05:05:17;2.50;;;2.30;;
297;SDS011;133;49.626;9.680;2023-04-24T05:07:43;2.50;;;2.30;;
297;SDS011;133;49.626;9.680;2023-04-24T05:10:09;2.20;;;2.00;;
297;SDS011;133;49.626;9.680;2023-04-24T05:12:35;2.50;;;2.30;;
297;SDS011;133;49.626;9.680;2023-04-24T05:15:01;2.60;;;2.40;;
297;SDS011;133;49.626;9.680;2023-04-24T05:17:27;2.80;;;2.60;;
297;SDS011;133;49.626;9.680;2023-04-24T05:19:53;2.70;;;2.50;;
297;SDS011;133;49.626;9.680;2023-04-24T05:22:18;2.70;;;2.50;;
297;SDS011;133;49.626;9.680;2023-04-24T05:24:45;5.57;;;2.33;;
297;SDS011;133;49.626;9.680;2023-04-24T05:27:12;2.13;;;1.97;;
297;SDS011;133;49.626;9.680;2023-04-24T05:29:37;3.03;;;2.23;;
297;SDS011;133;49.626;9.680;2023-04-24T05:32:03;2.50;;;2.17;;
297;SDS011;133;49.626;9.680;2023-04-24T05:34:29;2.83;;;2.37;;
297;SDS011;133;49.626;9.680;2023-04-24T05:36:54;2.60;;;2.40;;
297;SDS011;133;49.626;9.680;2023-04-24T05:39:20;2.50;;;2.30;;
297;SDS011;133;49.626;9.680;2023-04-24T05:41:46;2.53;;;2.40;;
297;SDS011;133;49.626;9.680;2023-04-24T05:44:11;2.63;;;2.43;;
297;SDS011;133;49.626;9.680;2023-04-24T05:46:37;2.60;;;2.40;;
297;SDS011;133;49.626;9.680;2023-04-24T05:49:02;2.50;;;2.30;;
297;SDS011;133;49.626;9.680;2023-04-24T05:51:28;2.87;;;2.67;;
297;SDS011;133;49.626;9.680;2023-04-24T05:53:54;4.43;;;2.60;;
297;SDS011;133;49.626;9.680;2023-04-24T05:56:19;2.30;;;2.10;;
297;SDS011;133;49.626;9.680;2023-04-24T05:58:45;6.20;;;2.53;;
297;SDS011;133;49.626;9.680;2023-04-24T06:01:12;3.00;;;2.80;;
297;SDS011;133;49.626;9.680;2023-04-24T06:03:40;2.70;;;2.50;;
297;SDS011;133;49.626;9.680;2023-04-24T06:06:06;3.20;;;3.00;;
297;SDS011;133;49.626;9.680;2023-04-24T06:08:32;3.10;;;2.90;;
297;SDS011;133;49.626;9.680;2023-04-24T06:10:58;3.17;;;2.97;;
297;SDS011;133;49.626;9.680;2023-04-24T06:13:24;3.00;;;2.80;;
297;SDS011;133;49.626;9.680;2023-04-24T06:15:50;3.00;;;2.80;;
297;SDS011;133;49.626;9.680;2023-04-24T06:18:16;3.33;;;3.13;;
297;SDS011;133;49.626;9.680;2023-04-24T06:20:42;2.97;;;2.77;;
297;SDS011;133;49.626;9.680;2023-04-24T06:23:07;3.20;;;3.00;;
297;SDS011;133;49.626;9.680;2023-04-24T06:25:33;7.33;;;3.37;;
297;SDS011;133;49.626;9.680;2023-04-24T06:27:59;3.93;;;3.40;;
297;SDS011;133;49.626;9.680;2023-04-24T06:30:26;3.47;;;3.27;;
297;SDS011;133;49.626;9.680;2023-04-24T06:32:53;3.17;;;2.97;;
297;SDS011;133;49.626;9.680;2023-04-24T06:35:18;3.00;;;2.80;;
297;SDS011;133;49.626;9.680;2023-04-24T06:37:45;3.10;;;2.90;;
297;SDS011;133;49.626;9.680;2023-04-24T06:40:11;3.10;;;2.90;;
297;SDS011;133;49.626;9.680;2023-04-24T06:42:37;3.07;;;2.80;;
297;SDS011;133;49.626;9.680;2023-04-24T06:45:02;3.30;;;3.10;;
297;SDS011;133;49.626;9.680;2023-04-24T06:47:29;3.83;;;3.33;;
297;SDS011;133;49.626;9.680;2023-04-24T06:49:55;2.87;;;2.67;;
297;SDS011;133;49.626;9.680;2023-04-24T06:52:20;3.30;;;3.10;;
297;SDS011;133;49.626;9.680;2023-04-24T06:54:46;3.57;;;2.90;;
297;SDS011;133;49.626;9.680;2023-04-24T06:57:12;3.20;;;3.00;;
297;SDS011;133;49.626;9.680;2023-04-24T06:59:37;3.30;;;3.10;;
297;SDS011;133;49.626;9.680;2023-04-24T07:02:03;3.27;;;3.07;;
297;SDS011;133;49.626;9.680;2023-04-24T07:04:29;4.60;;;4.40;;
297;SDS011;133;49.626;9.680;2023-04-24T07:06:55;3.67;;;3.20;;
297;SDS011;133;49.626;9.680;2023-04-24T07:09:23;3.50;;;3.27;;
297;SDS011;133;49.626;9.680;2023-04-24T07:11:50;3.20;;;3.00;;
297;SDS011;133;49.626;9.680;2023-04-24T07:14:16;3.20;;;3.00;;
297;SDS011;133;49.626;9.680;2023-04-24T07:16:42;3.63;;;3.27;;
297;SDS011;133;49.626;9.680;2023-04-24T07:19:08;3.57;;;3.37;;
297;SDS011;133;49.626;9.680;2023-04-24T07:21:34;4.00;;;3.80;;
297;SDS011;133;49.626;9.680;2023-04-24T07:24:00;6.27;;;5.40;;
297;SDS011;133;49.626;9.680;2023-04-24T07:26:26;4.33;;;3.67;;
297;SDS011;133;49.626;9.680;2023-04-24T07:28:53;4.63;;;3.63;;
297;SDS011;133;49.626;9.680;2023-04-24T07:31:18;6.97;;;4.17;;
297;SDS011;133;49.626;9.680;2023-04-24T07:33:44;4.03;;;3.87;;
297;SDS011;133;49.626;9.680;2023-04-24T07:36:10;4.83;;;4.17;;
297;SDS011;133;49.626;9.680;2023-04-24T07:38:40;5.27;;;3.47;;
297;SDS011;133;49.626;9.680;2023-04-24T07:41:10;5.10;;;4.27;;
297;SDS011;133;49.626;9.680;2023-04-24T07:43:36;4.00;;;3.80;;
297;SDS011;133;49.626;9.680;2023-04-24T07:46:01;3.93;;;3.77;;
297;SDS011;133;49.626;9.680;2023-04-24T07:48:27;4.13;;;3.90;;
297;SDS011;133;49.626;9.680;2023-04-24T07:50:53;4.00;;;3.80;;
297;SDS011;133;49.626;9.680;2023-04-24T07:53:18;6.60;;;5.60;;
297;SDS011;133;49.626;9.680;2023-04-24T07:55:44;5.50;;;4.50;;
297;SDS011;133;49.626;9.680;2023-04-24T07:58:09;5.27;;;4.33;;
297;SDS011;133;49.626;9.680;2023-04-24T08:00:35;5.97;;;4.00;;
297;SDS011;133;49.626;9.680;2023-04-24T08:03:01;5.00;;;3.93;;
297;SDS011;133;49.626;9.680;2023-04-24T08:05:27;4.60;;;4.00;;
297;SDS011;133;49.626;9.680;2023-04-24T08:07:53;4.33;;;4.10;;
297;SDS011;133;49.626;9.680;2023-04-24T08:10:20;4.57;;;4.23;;
297;SDS011;133;49.626;9.680;2023-04-24T08:12:50;5.93;;;4.00;;
297;SDS011;133;49.626;9.680;2023-04-24T08:15:15;6.83;;;4.23;;
297;SDS011;133;49.626;9.680;2023-04-24T08:17:41;4.00;;;3.80;;
297;SDS011;133;49.626;9.680;2023-04-24T08:20:08;5.30;;;4.07;;
297;SDS011;133;49.626;9.680;2023-04-24T08:22:38;4.00;;;3.80;;
297;SDS011;133;49.626;9.680;2023-04-24T08:25:05;3.80;;;3.63;;
297;SDS011;133;49.626;9.680;2023-04-24T08:27:31;4.53;;;4.10;;
297;SDS011;133;49.626;9.680;2023-04-24T08:29:57;3.83;;;3.63;;
297;SDS011;133;49.626;9.680;2023-04-24T08:32:23;2.73;;;2.53;;
297;SDS011;133;49.626;9.680;2023-04-24T08:34:49;2.43;;;2.23;;
297;SDS011;133;49.626;9.680;2023-04-24T08:37:17;3.03;;;2.70;;
297;SDS011;133;49.626;9.680;2023-04-24T08:39:43;2.33;;;2.13;;
297;SDS011;133;49.626;9.680;2023-04-24T08:42:08;2.50;;;2.30;;
297;SDS011;133;49.626;9.680;2023-04-24T08:44:36;2.50;;;2.30;;
297;SDS011;133;49.626;9.680;2023-04-24T08:47:02;2.40;;;2.20;;
297;SDS011;133;49.626;9.680;2023-04-24T08:49:28;3.53;;;2.50;;
297;SDS011;133;49.626;9.680;2023-04-24T08:51:54;3.67;;;3.47;;
297;SDS011;133;49.626;9.680;2023-04-24T08:54:20;2.57;;;2.37;;
297;SDS011;133;49.626;9.680;2023-04-24T08:56:47;2.60;;;2.43;;
297;SDS011;133;49.626;9.680;2023-04-24T08:59:14;2.40;;;2.20;;
297;SDS011;133;49.626;9.680;2023-04-24T09:01:40;5.20;;;2.40;;
297;SDS011;133;49.626;9.680;2023-04-24T09:04:07;2.70;;;2.50;;
297;SDS011;133;49.626;9.680;2023-04-24T09:06:37;2.47;;;2.27;;
297;SDS011;133;49.626;9.680;2023-04-24T09:09:04;2.70;;;2.50;;
297;SDS011;133;49.626;9.680;2023-04-24T09:11:30;2.73;;;2.57;;
297;SDS011;133;49.626;9.680;2023-04-24T09:13:59;2.50;;;2.30;;
297;SDS011;133;49.626;9.680;2023-04-24T09:16:26;3.77;;;2.57;;
297;SDS011;133;49.626;9.680;2023-04-24T09:18:52;3.00;;;2.83;;
297;SDS011;133;49.626;9.680;2023-04-24T09:21:19;2.73;;;2.53;;
297;SDS011;133;49.626;9.680;2023-04-24T09:23:46;2.70;;;2.50;;
297;SDS011;133;49.626;9.680;2023-04-24T09:26:23;2.87;;;2.67;;
297;SDS011;133;49.626;9.680;2023-04-24T09:28:49;3.13;;;2.93;;
297;SDS011;133;49.626;9.680;2023-04-24T09:31:17;2.73;;;2.53;;
297;SDS011;133;49.626;9.680;2023-04-24T09:33:56;3.03;;;2.80;;
297;SDS011;133;49.626;9.680;2023-04-24T09:36:42;3.00;;;2.80;;
297;SDS011;133;49.626;9.680;2023-04-24T09:39:09;3.03;;;2.83;;
297;SDS011;133;49.626;9.680;2023-04-24T09:41:53;2.87;;;2.60;;
297;SDS011;133;49.626;9.680;2023-04-24T09:44:22;2.80;;;2.63;;
297;SDS011;133;49.626;9.680;2023-04-24T09:46:58;3.07;;;2.83;;
297;SDS011;133;49.626;9.680;2023-04-24T09:49:26;3.10;;;2.90;;
297;SDS011;133;49.626;9.680;2023-04-24T09:52:03;3.23;;;3.03;;
297;SDS011;133;49.626;9.680;2023-04-24T09:54:29;5.30;;;2.67;;
297;SDS011;133;49.626;9.680;2023-04-24T09:56:55;2.90;;;2.70;;
297;SDS011;133;49.626;9.680;2023-04-24T09:59:21;2.87;;;2.67;;
297;SDS011;133;49.626;9.680;2023-04-24T10:01:47;3.27;;;3.07;;
297;SDS011;133;49.626;9.680;2023-04-24T10:04:21;2.93;;;2.70;;
297;SDS011;133;49.626;9.680;2023-04-24T10:06:49;2.70;;;2.47;;
297;SDS011;133;49.626;9.680;2023-04-24T10:09:16;4.17;;;2.97;;
297;SDS011;133;49.626;9.680;2023-04-24T10:11:43;6.13;;;3.43;;
297;SDS011;133;49.626;9.680;2023-04-24T10:14:12;4.20;;;3.60;;
297;SDS011;133;49.626;9.680;2023-04-24T10:16:42;3.83;;;3.43;;
297;SDS011;133;49.626;9.680;2023-04-24T10:19:08;2.90;;;2.80;;
297;SDS011;133;49.626;9.680;2023-04-24T10:21:35;3.43;;;3.27;;
297;SDS011;133;49.626;9.680;2023-04-24T10:24:07;3.17;;;2.97;;
297;SDS011;133;49.626;9.680;2023-04-24T10:26:33;9.03;;;3.40;;
297;SDS011;133;49.626;9.680;2023-04-24T10:29:00;6.23;;;4.00;;
297;SDS011;133;49.626;9.680;2023-04-24T10:31:27;3.20;;;3.00;;
297;SDS011;133;49.626;9.680;2023-04-24T10:33:56;3.37;;;3.00;;
297;SDS011;133;49.626;9.680;2023-04-24T10:36:23;3.30;;;3.10;;
297;SDS011;133;49.626;9.680;2023-04-24T10:38:51;3.10;;;2.90;;
297;SDS011;133;49.626;9.680;2023-04-24T10:41:19;3.40;;;3.20;;
297;SDS011;133;49.626;9.680;2023-04-24T10:43:48;3.20;;;3.03;;
297;SDS011;133;49.626;9.680;2023-04-24T10:46:29;3.50;;;3.30;;
297;SDS011;133;49.626;9.680;2023-04-24T10:48:55;3.20;;;3.00;;
297;SDS011;133;49.626;9.680;2023-04-24T10:51:22;3.50;;;2.70;;
297;SDS011;133;49.626;9.680;2023-04-24T10:53:51;3.40;;;3.20;;
297;SDS011;133;49.626;9.680;2023-04-24T10:56:17;3.20;;;3.00;;
297;SDS011;133;49.626;9.680;2023-04-24T10:58:50;3.10;;;2.80;;
297;SDS011;133;49.626;9.680;2023-04-24T11:03:56;3.10;;;2.90;;
297;SDS011;133;49.626;9.680;2023-04-24T11:06:29;2.80;;;2.60;;
297;SDS011;133;49.626;9.680;2023-04-24T11:09:03;2.90;;;2.70;;
297;SDS011;133;49.626;9.680;2023-04-24T11:11:34;2.70;;;2.50;;
297;SDS011;133;49.626;9.680;2023-04-24T11:14:03;3.00;;;2.80;;
297;SDS011;133;49.626;9.680;2023-04-24T11:16:31;2.70;;;2.50;;
297;SDS011;133;49.626;9.680;2023-04-24T11:21:55;3.87;;;2.40;;
297;SDS011;133;49.626;9.680;2023-04-24T11:24:38;4.13;;;3.27;;
297;SDS011;133;49.626;9.680;2023-04-24T11:27:20;2.80;;;2.60;;
297;SDS011;133;49.626;9.680;2023-04-24T11:29:47;3.13;;;2.93;;
297;SDS011;133;49.626;9.680;2023-04-24T11:34:48;3.70;;;3.17;;
297;SDS011;133;49.626;9.680;2023-04-24T11:37:15;2.67;;;2.47;;
297;SDS011;133;49.626;9.680;2023-04-24T11:39:41;2.53;;;2.33;;
297;SDS011;133;49.626;9.680;2023-04-24T11:42:08;2.80;;;2.60;;
297;SDS011;133;49.626;9.680;2023-04-24T11:44:35;3.30;;;3.03;;
297;SDS011;133;49.626;9.680;2023-04-24T11:47:06;3.10;;;2.80;;
297;SDS011;133;49.626;9.680;2023-04-24T11:49:33;2.90;;;2.70;;
297;SDS011;133;49.626;9.680;2023-04-24T11:52:01;2.87;;;2.67;;
297;SDS011;133;49.626;9.680;2023-04-24T11:54:27;3.10;;;2.37;;
297;SDS011;133;49.626;9.680;2023-04-24T11:56:53;2.57;;;2.37;;
297;SDS011;133;49.626;9.680;2023-04-24T11:59:21;4.53;;;2.77;;
297;SDS011;133;49.626;9.680;2023-04-24T12:01:46;2.80;;;2.60;;
297;SDS011;133;49.626;9.680;2023-04-24T12:04:13;2.93;;;2.73;;
297;SDS011;133;49.626;9.680;2023-04-24T12:09:28;3.30;;;2.60;;
297;SDS011;133;49.626;9.680;2023-04-24T12:12:05;3.60;;;2.70;;
297;SDS011;133;49.626;9.680;2023-04-24T12:14:31;2.90;;;2.70;;
297;SDS011;133;49.626;9.680;2023-04-24T12:16:57;2.63;;;2.43;;
297;SDS011;133;49.626;9.680;2023-04-24T12:19:23;3.10;;;2.90;;
297;SDS011;133;49.626;9.680;2023-04-24T12:21:59;6.80;;;2.67;;
297;SDS011;133;49.626;9.680;2023-04-24T12:24:29;3.70;;;2.97;;
297;SDS011;133;49.626;9.680;2023-04-24T12:26:56;2.97;;;2.77;;
297;SDS011;133;49.626;9.680;2023-04-24T12:29:23;3.60;;;2.90;;
297;SDS011;133;49.626;9.680;2023-04-24T12:31:49;3.10;;;2.90;;
297;SDS011;133;49.626;9.680;2023-04-24T12:36:45;2.70;;;2.50;;
297;SDS011;133;49.626;9.680;2023-04-24T12:39:18;3.10;;;2.90;;
297;SDS011;133;49.626;9.680;2023-04-24T12:41:54;2.87;;;2.67;;
297;SDS011;133;49.626;9.680;2023-04-24T12:44:31;2.90;;;2.70;;
297;SDS011;133;49.626;9.680;2023-04-24T12:47:02;3.30;;;3.10;;
297;SDS011;133;49.626;9.680;2023-04-24T12:49:31;3.43;;;3.23;;
297;SDS011;133;49.626;9.680;2023-04-24T12:51:57;4.37;;;3.37;;
297;SDS011;133;49.626;9.680;2023-04-24T12:54:22;3.10;;;2.90;;
297;SDS011;133;49.626;9.680;2023-04-24T12:56:48;3.10;;;2.90;;
297;SDS011;133;49.626;9.680;2023-04-24T12:59:13;3.00;;;2.90;;
297;SDS011;133;49.626;9.680;2023-04-24T13:01:40;4.50;;;3.10;;
297;SDS011;133;49.626;9.680;2023-04-24T13:04:06;6.27;;;3.40;;
297;SDS011;133;49.626;9.680;2023-04-24T13:06:31;3.67;;;3.47;;
297;SDS011;133;49.626;9.680;2023-04-24T13:08:57;2.97;;;2.77;;
297;SDS011;133;49.626;9.680;2023-04-24T13:11:23;3.73;;;3.30;;
297;SDS011;133;49.626;9.680;2023-04-24T13:13:49;3.33;;;3.13;;
297;SDS011;133;49.626;9.680;2023-04-24T13:16:15;3.60;;;3.40;;
297;SDS011;133;49.626;9.680;2023-04-24T13:18:41;3.20;;;3.00;;
297;SDS011;133;49.626;9.680;2023-04-24T13:21:06;5.93;;;3.33;;
297;SDS011;133;49.626;9.680;2023-04-24T13:23:32;3.13;;;2.93;;
297;SDS011;133;49.626;9.680;2023-04-24T13:25:58;3.10;;;2.90;;
297;SDS011;133;49.626;9.680;2023-04-24T13:28:24;3.20;;;2.97;;
297;SDS011;133;49.626;9.680;2023-04-24T13:30:50;3.43;;;3.23;;
297;SDS011;133;49.626;9.680;2023-04-24T13:33:16;3.63;;;2.93;;
297;SDS011;133;49.626;9.680;2023-04-24T13:35:41;3.30;;;3.20;;
297;SDS011;133;49.626;9.680;2023-04-24T13:38:07;4.30;;;3.30;;
297;SDS011;133;49.626;9.680;2023-04-24T13:40:33;3.40;;;3.20;;
297;SDS011;133;49.626;9.680;2023-04-24T13:42:58;3.50;;;3.30;;
297;SDS011;133;49.626;9.680;2023-04-24T13:45:25;3.17;;;3.03;;
297;SDS011;133;49.626;9.680;2023-04-24T13:47:51;4.10;;;3.90;;
297;SDS011;133;49.626;9.680;2023-04-24T13:50:19;6.47;;;4.50;;
297;SDS011;133;49.626;9.680;2023-04-24T13:52:45;3.93;;;3.73;;
297;SDS011;133;49.626;9.680;2023-04-24T13:55:11;5.60;;;3.97;;
297;SDS011;133;49.626;9.680;2023-04-24T13:57:36;5.20;;;4.07;;
297;SDS011;133;49.626;9.680;2023-04-24T14:00:02;5.63;;;3.70;;
297;SDS011;133;49.626;9.680;2023-04-24T14:02:29;5.10;;;4.30;;
297;SDS011;133;49.626;9.680;2023-04-24T14:04:55;3.80;;;3.60;;
297;SDS011;133;49.626;9.680;2023-04-24T14:07:20;4.53;;;4.23;;
297;SDS011;133;49.626;9.680;2023-04-24T14:09:46;4.40;;;4.10;;
297;SDS011;133;49.626;9.680;2023-04-24T14:12:12;6.60;;;5.03;;
297;SDS011;133;49.626;9.680;2023-04-24T14:14:38;4.30;;;4.00;;
297;SDS011;133;49.626;9.680;2023-04-24T14:17:04;4.53;;;3.93;;
297;SDS011;133;49.626;9.680;2023-04-24T14:19:30;5.03;;;4.20;;
297;SDS011;133;49.626;9.680;2023-04-24T14:21:56;5.57;;;3.90;;
297;SDS011;133;49.626;9.680;2023-04-24T14:24:23;4.40;;;4.10;;
297;SDS011;133;49.626;9.680;2023-04-24T14:26:48;5.60;;;4.40;;
297;SDS011;133;49.626;9.680;2023-04-24T14:29:14;5.17;;;4.60;;
297;SDS011;133;49.626;9.680;2023-04-24T14:31:41;4.50;;;4.20;;
297;SDS011;133;49.626;9.680;2023-04-24T14:34:07;4.90;;;4.07;;
297;SDS011;133;49.626;9.680;2023-04-24T14:36:33;4.50;;;4.20;;
297;SDS011;133;49.626;9.680;2023-04-24T14:38:59;6.23;;;4.70;;
297;SDS011;133;49.626;9.680;2023-04-24T14:41:24;4.83;;;4.07;;
297;SDS011;133;49.626;9.680;2023-04-24T14:43:50;7.90;;;4.33;;
297;SDS011;133;49.626;9.680;2023-04-24T14:46:16;6.30;;;4.10;;
297;SDS011;133;49.626;9.680;2023-04-24T14:48:41;4.27;;;4.07;;
297;SDS011;133;49.626;9.680;2023-04-24T14:51:07;4.83;;;3.80;;
297;SDS011;133;49.626;9.680;2023-04-24T14:53:33;4.40;;;4.10;;
297;SDS011;133;49.626;9.680;2023-04-24T14:55:59;4.53;;;4.20;;
297;SDS011;133;49.626;9.680;2023-04-24T14:58:25;6.43;;;4.57;;
297;SDS011;133;49.626;9.680;2023-04-24T15:00:50;7.70;;;4.70;;
297;SDS011;133;49.626;9.680;2023-04-24T15:03:18;5.33;;;4.20;;
297;SDS011;133;49.626;9.680;2023-04-24T15:05:45;4.83;;;4.00;;
297;SDS011;133;49.626;9.680;2023-04-24T15:08:11;4.57;;;4.27;;
297;SDS011;133;49.626;9.680;2023-04-24T15:10:36;4.63;;;4.37;;
297;SDS011;133;49.626;9.680;2023-04-24T15:13:02;4.40;;;4.10;;
297;SDS011;133;49.626;9.680;2023-04-24T15:15:28;5.40;;;3.90;;
297;SDS011;133;49.626;9.680;2023-04-24T15:17:53;4.70;;;3.90;;
297;SDS011;133;49.626;9.680;2023-04-24T15:20:19;4.40;;;3.93;;
297;SDS011;133;49.626;9.680;2023-04-24T15:22:44;5.97;;;4.50;;
297;SDS011;133;49.626;9.680;2023-04-24T15:25:10;5.10;;;4.40;;
297;SDS011;133;49.626;9.680;2023-04-24T15:27:43;6.43;;;4.50;;
297;SDS011;133;49.626;9.680;2023-04-24T15:30:10;5.20;;;4.90;;
297;SDS011;133;49.626;9.680;2023-04-24T15:32:36;4.90;;;4.30;;
297;SDS011;133;49.626;9.680;2023-04-24T15:35:02;4.40;;;4.10;;
297;SDS011;133;49.626;9.680;2023-04-24T15:37:28;5.23;;;4.47;;
297;SDS011;133;49.626;9.680;2023-04-24T15:39:54;7.60;;;4.23;;
297;SDS011;133;49.626;9.680;2023-04-24T15:42:20;4.40;;;4.10;;
297;SDS011;133;49.626;9.680;2023-04-24T15:44:46;11.27;;;4.47;;
297;SDS011;133;49.626;9.680;2023-04-24T15:47:11;5.80;;;4.37;;
297;SDS011;133;49.626;9.680;2023-04-24T15:49:39;4.30;;;4.00;;
297;SDS011;133;49.626;9.680;2023-04-24T15:52:05;4.20;;;3.70;;
297;SDS011;133;49.626;9.680;2023-04-24T15:54:30;4.60;;;4.30;;